Time;durP1;ratioP1;P1;durP2;ratioP2;P2;SDS_P1;SDS_P2;PMS_P1;PMS_P2;Temp;Humidity;BMP_temperature;BMP_pressure;BME280_temperature;BME280_humidity;BME280_pressure;Samples;Min_cycle;Max_cycle;Signal;HPM_P1;HPM_P2
2024/02/15 00:01:04;;;;;;;16.23;6.72;;;-9.10;95.90;;;;;;5073179;28;20027;-83
2024/02/15 00:03:34;;;;;;;10.15;6.13;;;-9.00;96.00;;;;;;5077999;28;20545;-83
2024/02/15 00:06:00;;;;;;;9.93;6.47;;;-9.00;95.70;;;;;;5080138;28;20114;-83
2024/02/15 00:08:26;;;;;;;11.55;6.05;;;-9.10;95.50;;;;;;5078457;28;20557;-83
2024/02/15 00:10:53;;;;;;;13.25;6.22;;;-9.10;95.70;;;;;;5079199;28;20074;-82
2024/02/15 00:13:19;;;;;;;10.73;5.88;;;-9.10;95.90;;;;;;5071979;28;20021;-82
2024/02/15 00:15:48;;;;;;;11.18;6.70;;;-9.10;96.00;;;;;;5071983;28;20039;-82
2024/02/15 00:18:14;;;;;;;10.18;6.38;;;-9.10;96.00;;;;;;5070958;28;20020;-83
2024/02/15 00:20:40;;;;;;;8.38;6.47;;;-9.10;96.20;;;;;;5063005;28;20043;-83
2024/02/15 00:23:06;;;;;;;11.93;6.68;;;-9.10;96.20;;;;;;5082684;28;20016;-81
2024/02/15 00:25:32;;;;;;;12.73;7.10;;;-9.10;96.20;;;;;;5080641;28;20037;-82
2024/02/15 00:28:01;;;;;;;13.65;7.55;;;-9.00;96.20;;;;;;5077490;28;20389;-83
2024/02/15 00:30:31;;;;;;;18.17;7.50;;;-9.00;96.20;;;;;;5073765;28;20032;-81
2024/02/15 00:32:57;;;;;;;10.45;6.93;;;-9.00;96.10;;;;;;5072002;28;20024;-82
2024/02/15 00:35:23;;;;;;;15.90;7.25;;;-9.10;96.00;;;;;;5073577;28;20052;-82
2024/02/15 00:37:50;;;;;;;8.93;5.55;;;-9.00;96.10;;;;;;5070122;28;20103;-81
2024/02/15 00:40:16;;;;;;;10.40;7.00;;;-9.00;96.00;;;;;;5080810;28;20028;-84
2024/02/15 00:42:41;;;;;;;11.80;5.68;;;-9.10;95.80;;;;;;5075941;28;20029;-83
2024/02/15 00:45:08;;;;;;;14.38;6.43;;;-9.10;95.90;;;;;;5076130;28;20493;-84
2024/02/15 00:47:35;;;;;;;17.08;6.68;;;-9.10;96.10;;;;;;5077496;28;20032;-84
2024/02/15 00:50:02;;;;;;;14.10;6.85;;;-9.10;96.10;;;;;;5090164;28;20032;-84
2024/02/15 00:52:30;;;;;;;11.10;5.50;;;-9.10;96.20;;;;;;5081277;28;20028;-82
2024/02/15 00:54:56;;;;;;;10.63;6.32;;;-9.10;96.30;;;;;;5079579;28;20020;-82
2024/02/15 00:57:22;;;;;;;12.98;6.25;;;-9.10;96.30;;;;;;5086796;28;20027;-81
2024/02/15 00:59:51;;;;;;;9.80;6.63;;;-9.10;96.20;;;;;;5090193;28;20091;-82
2024/02/15 01:02:17;;;;;;;12.20;6.70;;;-9.10;96.20;;;;;;5074675;28;20020;-82
2024/02/15 01:04:45;;;;;;;10.20;6.28;;;-9.10;96.20;;;;;;5074943;28;20362;-82
2024/02/15 01:07:11;;;;;;;10.30;6.30;;;-9.20;96.20;;;;;;5077268;28;20098;-81
2024/02/15 01:09:37;;;;;;;13.38;6.82;;;-9.10;96.20;;;;;;5081351;28;20082;-82
2024/02/15 01:12:03;;;;;;;11.93;6.50;;;-9.10;96.30;;;;;;5086727;28;20099;-81
2024/02/15 01:14:30;;;;;;;13.20;5.33;;;-9.10;96.30;;;;;;5085298;28;20051;-83
2024/02/15 01:16:56;;;;;;;15.30;8.75;;;-9.10;96.30;;;;;;5082023;28;20027;-84
2024/02/15 01:19:22;;;;;;;12.25;6.25;;;-9.10;96.30;;;;;;5073062;28;20426;-81
2024/02/15 01:21:50;;;;;;;14.05;8.38;;;-9.10;96.30;;;;;;5079516;28;20025;-82
2024/02/15 01:24:15;;;;;;;12.90;5.32;;;-9.20;96.40;;;;;;5083521;28;20033;-83
2024/02/15 01:26:41;;;;;;;14.23;7.45;;;-9.20;96.50;;;;;;5081187;28;20033;-82
2024/02/15 01:29:10;;;;;;;13.65;6.82;;;-9.20;96.50;;;;;;5079640;28;20020;-83
2024/02/15 01:31:36;;;;;;;18.60;6.88;;;-9.20;96.50;;;;;;5080157;28;20013;-82
2024/02/15 01:34:02;;;;;;;19.38;7.70;;;-9.20;96.50;;;;;;5084561;28;20359;-84
2024/02/15 01:36:28;;;;;;;9.43;5.60;;;-9.20;96.40;;;;;;5097824;28;20049;-81
2024/02/15 01:38:54;;;;;;;10.20;5.50;;;-9.20;96.40;;;;;;5084372;28;20012;-83
2024/02/15 01:41:19;;;;;;;11.52;7.00;;;-9.20;96.40;;;;;;5074287;28;20024;-82
2024/02/15 01:43:45;;;;;;;10.07;6.50;;;-9.20;96.40;;;;;;5073837;28;20559;-82
2024/02/15 01:46:12;;;;;;;12.30;5.57;;;-9.20;96.30;;;;;;5074284;28;20020;-82
2024/02/15 01:48:40;;;;;;;12.98;6.40;;;-9.20;96.40;;;;;;5073802;28;20480;-83
2024/02/15 01:51:08;;;;;;;9.05;4.43;;;-9.20;96.50;;;;;;5073770;28;20388;-83
2024/02/15 01:53:34;;;;;;;15.05;8.13;;;-9.30;96.40;;;;;;5072773;28;20428;-81
2024/02/15 01:56:00;;;;;;;10.63;6.60;;;-9.30;96.40;;;;;;5073721;28;20513;-81
2024/02/15 01:58:27;;;;;;;15.88;6.85;;;-9.30;96.50;;;;;;5073957;28;20111;-83
2024/02/15 02:00:53;;;;;;;;;;;-9.30;96.60;;;;;;5072765;28;20039;-83
2024/02/15 02:03:21;;;;;;;11.73;6.63;;;-9.30;96.60;;;;;;5080137;28;19951;-81
2024/02/15 02:05:47;;;;;;;12.18;6.75;;;-9.30;96.60;;;;;;5080339;28;20037;-81
2024/02/15 02:08:13;;;;;;;11.48;6.60;;;-9.30;96.40;;;;;;5073931;28;20394;-82
2024/02/15 02:10:40;;;;;;;10.48;6.47;;;-9.30;96.40;;;;;;5074320;28;20044;-82
2024/02/15 02:13:06;;;;;;;13.75;6.25;;;-9.30;96.20;;;;;;5060228;28;20047;-82
2024/02/15 02:15:32;;;;;;;12.48;8.15;;;-9.30;96.20;;;;;;5075300;28;20048;-83
2024/02/15 02:18:01;;;;;;;29.17;8.82;;;-9.30;96.50;;;;;;5081356;28;20031;-82
2024/02/15 02:20:27;;;;;;;12.45;7.13;;;-9.30;96.20;;;;;;5081259;28;20028;-82
2024/02/15 02:23:00;;;;;;;13.63;6.20;;;-9.30;96.30;;;;;;5078262;28;20025;-83
2024/02/15 02:25:28;;;;;;;13.07;6.78;;;-9.30;96.50;;;;;;5077332;28;20040;-82
2024/02/15 02:27:56;;;;;;;13.85;6.95;;;-9.30;96.60;;;;;;5075015;28;20139;-83
2024/02/15 02:30:22;;;;;;;;;;;-9.30;96.60;;;;;;5058826;28;20025;-83
2024/02/15 02:32:48;;;;;;;14.20;6.38;;;-9.30;96.70;;;;;;5076554;28;19904;-83
2024/02/15 02:35:15;;;;;;;11.73;7.10;;;-9.30;96.60;;;;;;5074181;28;20162;-82
2024/02/15 02:37:42;;;;;;;10.75;5.93;;;-9.30;96.40;;;;;;5074578;28;20103;-82
2024/02/15 02:40:09;;;;;;;16.38;7.82;;;-9.30;96.40;;;;;;5081827;28;20027;-82
2024/02/15 02:43:01;;;;;;;12.95;7.35;;;-9.30;96.50;;;;;;5087677;28;20035;-82
2024/02/15 02:45:27;;;;;;;15.57;7.53;;;-9.30;96.70;;;;;;5078155;28;20023;-83
2024/02/15 02:47:54;;;;;;;10.68;6.20;;;-9.30;96.70;;;;;;5078218;28;20013;-83
2024/02/15 02:50:22;;;;;;;16.73;7.63;;;-9.30;96.70;;;;;;5076617;28;20032;-82
2024/02/15 02:52:48;;;;;;;14.95;7.60;;;-9.30;96.80;;;;;;5074538;28;20253;-82
2024/02/15 02:55:14;;;;;;;12.45;6.75;;;-9.30;96.70;;;;;;5075616;28;20016;-83
2024/02/15 02:57:42;;;;;;;14.77;7.15;;;-9.30;96.80;;;;;;5088742;28;20095;-82
2024/02/15 03:00:16;;;;;;;12.18;6.95;;;-9.20;96.90;;;;;;5077456;28;20025;-82
2024/02/15 03:02:46;;;;;;;16.85;7.78;;;-9.20;96.80;;;;;;5075471;28;20024;-82
2024/02/15 03:05:13;;;;;;;15.60;6.30;;;-9.20;96.80;;;;;;5076276;28;20033;-83
2024/02/15 03:07:42;;;;;;;6.93;3.63;;;-9.20;96.80;;;;;;5076289;28;20013;-84
2024/02/15 03:10:13;;;;;;;8.25;4.70;;;-9.20;96.80;;;;;;5084828;28;20495;-81
2024/02/15 03:12:40;;;;;;;21.98;7.95;;;-9.20;96.80;;;;;;5073329;28;20027;-83
2024/02/15 03:15:13;;;;;;;14.75;7.50;;;-9.20;96.80;;;;;;5072725;28;20071;-84
2024/02/15 03:17:40;;;;;;;10.55;6.40;;;-9.20;96.80;;;;;;5067523;28;20025;-84
2024/02/15 03:20:26;;;;;;;15.40;8.13;;;-9.20;96.80;;;;;;5074642;28;20020;-82
2024/02/15 03:22:53;;;;;;;10.00;6.32;;;-9.20;96.50;;;;;;5069493;28;20036;-82
2024/02/15 03:25:19;;;;;;;15.25;7.55;;;-9.20;96.40;;;;;;5078439;28;20040;-82
2024/02/15 03:27:45;;;;;;;14.02;8.95;;;-9.20;96.40;;;;;;5083024;28;20024;-81
2024/02/15 03:30:11;;;;;;;11.45;6.30;;;-9.30;96.50;;;;;;5073444;28;20021;-83
2024/02/15 03:32:37;;;;;;;10.43;6.95;;;-9.30;96.50;;;;;;5072877;28;20016;-82
2024/02/15 03:35:03;;;;;;;15.90;8.77;;;-9.30;96.50;;;;;;5071424;28;20503;-82
2024/02/15 03:37:29;;;;;;;11.75;5.60;;;-9.30;96.50;;;;;;5071135;28;20649;-84
2024/02/15 03:39:55;;;;;;;14.70;7.57;;;-9.20;96.50;;;;;;5073730;28;20385;-83
2024/02/15 03:42:21;;;;;;;12.60;7.85;;;-9.30;96.40;;;;;;5075588;28;20059;-83
2024/02/15 03:44:47;;;;;;;11.43;7.82;;;-9.30;96.40;;;;;;5071119;28;20040;-82
2024/02/15 03:47:14;;;;;;;15.95;7.38;;;-9.30;96.60;;;;;;5072132;28;20050;-82
2024/02/15 03:49:42;;;;;;;12.73;8.00;;;-9.30;96.60;;;;;;5072879;28;20062;-83
2024/02/15 03:52:10;;;;;;;;;;;-9.30;96.50;;;;;;5072693;28;20024;-83
2024/02/15 03:54:36;;;;;;;7.57;4.57;;;-9.30;96.40;;;;;;5084358;28;19915;-80
2024/02/15 03:57:02;;;;;;;13.70;7.55;;;-9.30;96.40;;;;;;5063819;28;20031;-83
2024/02/15 03:59:28;;;;;;;14.68;7.80;;;-9.30;96.60;;;;;;5071699;28;20021;-82
2024/02/15 04:01:54;;;;;;;16.42;7.75;;;-9.30;96.60;;;;;;5072490;28;20435;-80
2024/02/15 04:04:21;;;;;;;13.23;7.13;;;-9.30;96.60;;;;;;5071005;28;20074;-87
2024/02/15 04:06:51;;;;;;;12.18;6.60;;;-9.30;96.70;;;;;;5072211;28;20048;-83
2024/02/15 04:09:17;;;;;;;12.88;8.13;;;-9.30;96.80;;;;;;5073761;28;20056;-82
2024/02/15 04:11:49;;;;;;;10.55;6.72;;;-9.30;96.90;;;;;;5070213;28;20029;-82
2024/02/15 04:14:18;;;;;;;14.98;7.68;;;-9.30;96.90;;;;;;5076476;28;20042;-83
2024/02/15 04:16:44;;;;;;;12.68;7.70;;;-9.30;96.90;;;;;;5081092;28;20024;-83
2024/02/15 04:19:11;;;;;;;14.75;8.07;;;-9.30;96.90;;;;;;5076698;28;20029;-82
2024/02/15 04:21:37;;;;;;;16.05;6.80;;;-9.30;96.90;;;;;;5075796;28;20551;-85
2024/02/15 04:24:03;;;;;;;14.07;7.82;;;-9.20;96.90;;;;;;5073248;28;20394;-82
2024/02/15 04:26:30;;;;;;;9.67;7.90;;;-9.20;97.00;;;;;;5077557;28;20363;-83
2024/02/15 04:28:56;;;;;;;12.90;6.00;;;-9.20;96.90;;;;;;5087285;28;20023;-81
2024/02/15 04:31:26;;;;;;;16.83;7.35;;;-9.30;96.70;;;;;;5075857;28;20114;-83
2024/02/15 04:33:55;;;;;;;17.08;8.30;;;-9.30;96.80;;;;;;5074628;28;20024;-82
2024/02/15 04:36:24;;;;;;;16.17;8.13;;;-9.30;96.80;;;;;;5075175;28;20553;-82
2024/02/15 04:38:52;;;;;;;14.45;7.85;;;-9.20;97.00;;;;;;5075365;28;20074;-82
2024/02/15 04:41:23;;;;;;;;;;;-9.20;97.00;;;;;;5076518;28;20028;-82
2024/02/15 04:43:54;;;;;;;15.05;7.15;;;-9.20;97.00;;;;;;5078993;28;19976;-83
2024/02/15 04:46:21;;;;;;;18.13;8.63;;;-9.20;96.90;;;;;;5080206;28;20086;-83
2024/02/15 04:48:50;;;;;;;12.32;6.07;;;-9.20;96.90;;;;;;5083347;28;20028;-82
2024/02/15 04:51:16;;;;;;;17.83;7.55;;;-9.20;96.90;;;;;;5065451;28;20070;-81
2024/02/15 04:53:46;;;;;;;14.90;8.25;;;-9.20;97.30;;;;;;5080937;28;20028;-82
2024/02/15 04:56:16;;;;;;;18.00;8.77;;;-9.30;97.20;;;;;;5082687;28;20028;-83
2024/02/15 04:58:47;;;;;;;18.27;9.65;;;-9.20;97.10;;;;;;5083158;28;20089;-84
2024/02/15 05:01:16;;;;;;;16.15;9.15;;;-9.20;97.00;;;;;;5078410;28;20405;-83
2024/02/15 05:03:46;;;;;;;14.32;7.15;;;-9.20;97.10;;;;;;5078397;28;20043;-82
2024/02/15 05:06:13;;;;;;;13.52;7.60;;;-9.20;97.50;;;;;;5075042;28;20040;-83
2024/02/15 05:08:42;;;;;;;15.57;9.45;;;-9.20;97.20;;;;;;5075747;28;20115;-82
2024/02/15 05:11:22;;;;;;;18.30;9.55;;;-9.20;97.10;;;;;;5067281;28;20108;-82
2024/02/15 05:13:51;;;;;;;12.73;7.28;;;-9.20;97.20;;;;;;5074298;28;20017;-81
2024/02/15 05:16:17;;;;;;;17.48;6.78;;;-9.10;97.30;;;;;;5074899;28;20020;-81
2024/02/15 05:18:44;;;;;;;16.15;8.10;;;-9.10;97.30;;;;;;5074560;28;20426;-82
2024/02/15 05:21:10;;;;;;;13.98;7.82;;;-9.10;97.20;;;;;;5074118;28;20028;-82
2024/02/15 05:23:39;;;;;;;15.07;7.93;;;-9.10;97.30;;;;;;5073685;28;20062;-81
2024/02/15 05:26:06;;;;;;;13.80;8.43;;;-9.10;97.40;;;;;;5072432;28;20056;-83
2024/02/15 05:28:32;;;;;;;14.52;7.60;;;-9.10;97.50;;;;;;5073964;28;20021;-83
2024/02/15 05:31:19;;;;;;;10.25;6.60;;;-9.00;97.50;;;;;;5069485;28;20398;-84
2024/02/15 05:33:47;;;;;;;14.38;7.22;;;-9.00;97.40;;;;;;5070572;28;20385;-82
2024/02/15 05:36:20;;;;;;;19.80;8.90;;;-9.00;97.40;;;;;;5071260;28;20113;-82
2024/02/15 05:38:51;;;;;;;20.13;8.93;;;-9.00;97.40;;;;;;5076170;28;20051;-81
2024/02/15 05:41:17;;;;;;;17.38;9.65;;;-9.00;97.30;;;;;;5074410;28;20036;-81
2024/02/15 05:43:43;;;;;;;18.88;8.20;;;-9.00;97.30;;;;;;5081140;28;20179;-82
2024/02/15 05:46:10;;;;;;;20.80;9.88;;;-8.90;97.40;;;;;;5075991;28;20114;-81
2024/02/15 05:48:37;;;;;;;11.65;8.20;;;-8.90;97.50;;;;;;5086507;28;20425;-81
2024/02/15 05:51:04;;;;;;;17.63;9.10;;;-8.90;97.50;;;;;;5075439;28;20107;-82
2024/02/15 05:53:30;;;;;;;18.95;9.02;;;-8.90;97.40;;;;;;5073135;28;20024;-82
2024/02/15 05:56:00;;;;;;;19.35;8.77;;;-8.90;97.30;;;;;;5070610;28;20056;-82
2024/02/15 05:58:25;;;;;;;15.70;8.73;;;-8.80;97.50;;;;;;5064682;28;20033;-82
2024/02/15 06:00:52;;;;;;;14.38;8.52;;;-8.80;97.50;;;;;;5059192;28;20050;-81
2024/02/15 06:03:22;;;;;;;17.98;8.88;;;-8.80;97.40;;;;;;5068277;28;20035;-81
2024/02/15 06:05:49;;;;;;;18.70;9.45;;;-8.80;97.40;;;;;;5073205;28;20446;-82
2024/02/15 06:08:15;;;;;;;16.88;8.57;;;-8.80;97.40;;;;;;5073158;28;20055;-78
2024/02/15 06:10:43;;;;;;;29.48;9.57;;;-8.70;97.50;;;;;;5073254;28;20029;-82
2024/02/15 06:13:10;;;;;;;23.42;10.63;;;-8.70;97.40;;;;;;5061035;28;20020;-80
2024/02/15 06:15:36;;;;;;;13.82;7.90;;;-8.70;97.40;;;;;;5072806;28;20074;-80
2024/02/15 06:18:08;;;;;;;17.48;8.98;;;-8.70;97.50;;;;;;5071214;28;20028;-81
2024/02/15 06:20:35;;;;;;;19.35;8.93;;;-8.70;97.50;;;;;;5072831;28;20130;-80
2024/02/15 06:23:04;;;;;;;21.75;11.43;;;-8.60;97.50;;;;;;5071446;28;20134;-80
2024/02/15 06:25:31;;;;;;;21.15;10.77;;;-8.60;97.50;;;;;;5072553;28;20446;-82
2024/02/15 06:28:01;;;;;;;18.35;9.45;;;-8.60;97.40;;;;;;5071235;28;20025;-82
2024/02/15 06:41:35;;;;;;;17.75;10.25;;;-8.50;97.50;;;;;;5072577;28;20066;-81
2024/02/15 06:44:01;;;;;;;16.20;8.93;;;-8.50;97.50;;;;;;5072896;28;20017;-80
2024/02/15 06:46:27;;;;;;;18.52;11.25;;;-8.50;97.40;;;;;;5070966;28;20501;-82
2024/02/15 06:48:54;;;;;;;17.13;10.05;;;-8.40;97.40;;;;;;5072186;28;20029;-81
2024/02/15 06:51:20;;;;;;;23.30;11.65;;;-8.40;97.50;;;;;;5071071;28;20028;-79
2024/02/15 06:53:49;;;;;;;17.92;7.68;;;-8.40;97.40;;;;;;5073681;28;20115;-79
2024/02/15 06:56:15;;;;;;;19.67;9.63;;;-8.40;97.40;;;;;;5071932;28;20374;-80
2024/02/15 06:58:41;;;;;;;21.13;10.02;;;-8.40;97.40;;;;;;5072697;28;20051;-81
2024/02/15 07:01:07;;;;;;;16.95;11.68;;;-8.40;97.40;;;;;;5072003;28;20042;-80
2024/02/15 07:03:33;;;;;;;34.85;17.95;;;-8.30;97.40;;;;;;5070712;28;20050;-80
2024/02/15 07:05:59;;;;;;;18.70;11.60;;;-8.30;97.30;;;;;;5071955;28;20036;-79
2024/02/15 07:08:25;;;;;;;19.67;10.57;;;-8.30;97.40;;;;;;5071894;28;20094;-80
2024/02/15 07:10:54;;;;;;;20.52;11.57;;;-8.30;97.40;;;;;;5076986;28;20033;-81
2024/02/15 07:13:20;;;;;;;26.35;13.80;;;-8.30;97.50;;;;;;5070856;28;20030;-80
2024/02/15 07:15:46;;;;;;;19.25;12.30;;;-8.30;97.60;;;;;;5073391;28;20133;-80
2024/02/15 07:18:18;;;;;;;20.95;12.48;;;-8.20;97.50;;;;;;5071899;28;20025;-79
2024/02/15 07:20:45;;;;;;;35.00;13.00;;;-8.20;97.50;;;;;;5071021;28;20528;-80
2024/02/15 07:23:11;;;;;;;28.30;16.15;;;-8.20;97.70;;;;;;5072498;28;20039;-80
2024/02/15 07:25:40;;;;;;;14.63;7.35;;;-8.10;98.00;;;;;;5073523;28;20346;-80
2024/02/15 07:28:09;;;;;;;16.23;9.27;;;-8.10;98.20;;;;;;5072920;28;20051;-80
2024/02/15 07:30:36;;;;;;;17.33;9.45;;;-8.10;98.40;;;;;;5071842;28;20032;-79
2024/02/15 07:33:03;;;;;;;13.57;8.88;;;-8.10;98.30;;;;;;5071929;28;20028;-79
2024/02/15 07:35:29;;;;;;;13.82;8.10;;;-8.10;98.20;;;;;;5070560;28;20021;-80
2024/02/15 07:37:58;;;;;;;18.38;8.57;;;-8.00;98.20;;;;;;5072026;28;20024;-80
2024/02/15 07:40:27;;;;;;;16.63;8.20;;;-8.00;98.20;;;;;;5086496;28;20493;-80
2024/02/15 07:42:58;;;;;;;17.42;9.45;;;-8.00;98.30;;;;;;5072464;28;20382;-79
2024/02/15 07:45:23;;;;;;;15.93;8.38;;;-7.90;98.30;;;;;;5071077;28;20094;-79
2024/02/15 07:47:49;;;;;;;16.30;8.82;;;-7.80;98.20;;;;;;5073381;28;20028;-79
2024/02/15 07:50:22;;;;;;;19.92;9.38;;;-7.80;98.10;;;;;;5076293;28;20064;-79
2024/02/15 07:52:49;;;;;;;16.55;8.75;;;-7.70;97.90;;;;;;5076336;28;20012;-81
2024/02/15 07:55:15;;;;;;;15.07;8.73;;;-7.70;97.80;;;;;;5075690;28;20025;-79
2024/02/15 07:57:41;;;;;;;21.35;10.88;;;-7.70;97.60;;;;;;5074744;28;20024;-80
2024/02/15 08:00:10;;;;;;;14.35;6.88;;;-7.60;97.50;;;;;;5076355;28;20031;-81
2024/02/15 08:02:40;;;;;;;12.30;7.78;;;-7.60;97.30;;;;;;5090286;28;20346;-79
2024/02/15 08:05:09;;;;;;;13.60;8.18;;;-7.50;97.20;;;;;;5076638;28;20485;-80
2024/02/15 08:07:49;;;;;;;19.85;9.40;;;-7.50;97.60;;;;;;5077251;28;20465;-79
2024/02/15 08:10:15;;;;;;;17.92;10.57;;;-7.50;97.60;;;;;;5083532;28;20051;-81
2024/02/15 08:12:46;;;;;;;14.02;6.97;;;-7.40;97.60;;;;;;5078849;28;20024;-80
2024/02/15 08:15:13;;;;;;;16.08;8.00;;;-7.40;97.40;;;;;;5077335;28;20070;-82
2024/02/15 08:17:40;;;;;;;14.90;8.45;;;-7.50;97.20;;;;;;5077360;28;20070;-80
2024/02/15 08:20:09;;;;;;;15.75;7.95;;;-7.40;96.70;;;;;;5075638;28;20500;-77
2024/02/15 08:22:38;;;;;;;11.77;8.23;;;-7.50;96.60;;;;;;5077407;28;20036;-79
2024/02/15 08:25:10;;;;;;;14.02;8.70;;;-7.40;96.80;;;;;;5075415;28;20059;-81
2024/02/15 08:27:44;;;;;;;12.82;8.07;;;-7.40;96.90;;;;;;5077976;28;20020;-80
2024/02/15 08:30:14;;;;;;;13.10;7.45;;;-7.40;96.70;;;;;;5096187;28;20021;-79
2024/02/15 08:32:42;;;;;;;18.08;8.20;;;-7.30;96.70;;;;;;5079576;28;20104;-80
2024/02/15 08:35:12;;;;;;;14.18;7.65;;;-7.30;96.50;;;;;;5073835;28;20025;-81
2024/02/15 08:37:39;;;;;;;21.42;10.65;;;-7.30;96.20;;;;;;5074873;28;20046;-79
2024/02/15 08:40:10;;;;;;;12.90;7.90;;;-7.30;95.80;;;;;;5075024;28;20485;-81
2024/02/15 08:42:43;;;;;;;14.02;7.38;;;-7.30;95.70;;;;;;5073388;28;20089;-82
2024/02/15 08:45:09;;;;;;;14.05;8.30;;;-7.20;95.70;;;;;;5074178;28;20028;-81
2024/02/15 08:47:40;;;;;;;14.13;7.53;;;-7.20;96.10;;;;;;5076578;28;20012;-79
2024/02/15 08:50:09;;;;;;;16.40;8.90;;;-7.20;95.80;;;;;;5075589;28;20032;-81
2024/02/15 08:52:37;;;;;;;13.52;7.25;;;-7.10;95.70;;;;;;5074338;28;20051;-81
2024/02/15 08:55:09;;;;;;;14.52;8.32;;;-7.10;95.70;;;;;;5074748;28;20029;-80
2024/02/15 08:57:36;;;;;;;16.20;7.78;;;-7.10;95.70;;;;;;5073372;28;20033;-80
2024/02/15 09:00:10;;;;;;;14.70;8.25;;;-7.10;96.00;;;;;;5073566;28;20021;-81
2024/02/15 09:02:35;;;;;;;16.23;8.85;;;-7.00;95.50;;;;;;5074631;28;20037;-80
2024/02/15 09:05:02;;;;;;;14.52;8.55;;;-7.00;95.60;;;;;;5073014;28;20036;-80
2024/02/15 09:07:30;;;;;;;19.05;10.45;;;-7.00;95.50;;;;;;5070136;28;20529;-82
2024/02/15 09:09:56;;;;;;;14.90;10.32;;;-7.00;95.20;;;;;;5074071;28;20509;-80
2024/02/15 09:12:22;;;;;;;24.63;11.85;;;-7.00;95.00;;;;;;5074715;28;20032;-81
2024/02/15 09:14:48;;;;;;;16.23;10.75;;;-7.00;94.80;;;;;;5074014;28;20021;-80
2024/02/15 09:17:14;;;;;;;19.95;9.55;;;-7.10;95.00;;;;;;5074530;28;20065;-80
2024/02/15 09:19:41;;;;;;;21.63;10.43;;;-7.00;95.00;;;;;;5074709;28;20037;-80
2024/02/15 09:22:07;;;;;;;21.30;10.82;;;-7.10;95.10;;;;;;5075019;28;20382;-81
2024/02/15 09:24:33;;;;;;;25.85;12.40;;;-7.10;95.00;;;;;;5074153;28;20033;-80
2024/02/15 09:27:01;;;;;;;25.52;11.43;;;-7.10;95.20;;;;;;5074247;28;20420;-80
2024/02/15 09:29:29;;;;;;;21.20;11.77;;;-7.10;94.80;;;;;;5074345;28;20058;-79
2024/02/15 09:31:57;;;;;;;22.63;12.15;;;-7.10;94.50;;;;;;5072628;28;20035;-81
2024/02/15 09:34:23;;;;;;;;;;;-7.20;94.20;;;;;;5074291;28;20037;-79
2024/02/15 09:36:49;;;;;;;18.02;11.85;;;-7.20;94.10;;;;;;5073993;28;19904;-80
2024/02/15 09:39:15;;;;;;;17.98;9.40;;;-7.20;94.30;;;;;;5072868;28;20024;-81
2024/02/15 09:41:44;;;;;;;19.10;13.07;;;-7.30;94.10;;;;;;5073685;28;20032;-80
2024/02/15 09:44:13;;;;;;;13.10;8.13;;;-7.20;94.20;;;;;;5074351;28;20074;-79
2024/02/15 09:46:46;;;;;;;22.23;9.95;;;-7.20;93.80;;;;;;5074456;28;20508;-78
2024/02/15 09:49:13;;;;;;;14.88;8.35;;;-7.20;94.20;;;;;;5072232;28;20024;-80
2024/02/15 09:51:41;;;;;;;16.65;10.15;;;-7.20;94.60;;;;;;5081564;28;20020;-83
2024/02/15 09:54:09;;;;;;;17.45;10.13;;;-7.20;94.80;;;;;;5077930;28;20033;-80
2024/02/15 09:56:35;;;;;;;14.40;9.13;;;-7.20;94.90;;;;;;5072433;28;20487;-79
2024/02/15 09:59:02;;;;;;;15.98;8.98;;;-7.10;95.00;;;;;;5072377;28;20025;-82
2024/02/15 10:01:31;;;;;;;19.77;10.55;;;-7.10;94.80;;;;;;5074131;28;20550;-81
2024/02/15 10:03:59;;;;;;;19.52;11.55;;;-7.10;94.80;;;;;;5073759;28;20021;-81
2024/02/15 10:06:27;;;;;;;20.38;10.75;;;-7.10;94.60;;;;;;5070841;28;20044;-80
2024/02/15 10:08:53;;;;;;;22.80;11.68;;;-7.10;94.40;;;;;;5071815;28;20182;-80
2024/02/15 10:11:20;;;;;;;16.48;8.10;;;-7.10;94.30;;;;;;5072488;28;20017;-80
2024/02/15 10:13:47;;;;;;;17.85;9.75;;;-7.10;94.50;;;;;;5072256;28;20130;-80
2024/02/15 10:16:24;;;;;;;18.67;9.65;;;-7.00;95.10;;;;;;5073560;28;20028;-82
2024/02/15 10:18:51;;;;;;;15.10;8.80;;;-7.00;94.80;;;;;;5073406;28;20035;-82
2024/02/15 10:21:31;;;;;;;20.10;8.48;;;-7.00;94.80;;;;;;5072987;28;20025;-81
2024/02/15 10:24:07;;;;;;;17.55;9.48;;;-7.00;95.10;;;;;;5073047;28;20495;-82
2024/02/15 10:26:34;;;;;;;25.60;9.88;;;-7.00;95.10;;;;;;5072893;28;20524;-82
2024/02/15 10:29:11;;;;;;;19.17;10.23;;;-7.00;95.10;;;;;;5073443;28;20021;-81
2024/02/15 10:31:51;;;;;;;17.67;9.73;;;-7.10;94.60;;;;;;5075402;28;20024;-79
2024/02/15 10:34:18;;;;;;;14.23;9.95;;;-7.10;94.60;;;;;;5081292;28;20059;-82
2024/02/15 10:36:45;;;;;;;;;;;-7.10;94.40;;;;;;5073641;28;20024;-80
2024/02/15 10:39:23;;;;;;;17.30;7.60;;;-7.10;94.40;;;;;;5072056;28;19912;-81
2024/02/15 10:41:52;;;;;;;19.15;8.68;;;-7.10;94.00;;;;;;5072791;28;20016;-81
2024/02/15 10:44:23;;;;;;;19.33;11.23;;;-7.10;94.00;;;;;;5072545;28;20024;-81
2024/02/15 10:46:51;;;;;;;24.02;11.73;;;-7.10;93.70;;;;;;5072504;28;20020;-80
2024/02/15 10:49:23;;;;;;;;;;;-7.10;93.70;;;;;;5073323;28;20108;-80
2024/02/15 10:51:55;;;;;;;19.25;7.13;;;-7.10;93.90;;;;;;5073433;28;19904;-80
2024/02/15 10:54:46;;;;;;;25.27;11.75;;;-7.20;94.00;;;;;;5072936;28;20149;-81
2024/02/15 10:57:14;;;;;;;17.30;9.40;;;-7.10;94.30;;;;;;5072829;28;20024;-80
2024/02/15 10:59:53;;;;;;;20.77;11.38;;;-7.10;94.40;;;;;;5074022;28;20021;-80
2024/02/15 11:02:30;;;;;;;19.95;10.70;;;-7.10;94.50;;;;;;5076261;28;20025;-80
2024/02/15 11:05:20;;;;;;;21.60;11.15;;;-7.00;94.70;;;;;;5069263;28;20044;-80
2024/02/15 11:07:46;;;;;;;17.50;10.60;;;-7.00;94.80;;;;;;5071342;28;20025;-80
2024/02/15 11:10:16;;;;;;;13.88;8.10;;;-6.90;95.00;;;;;;5084716;28;20501;-82
2024/02/15 11:12:43;;;;;;;20.45;9.50;;;-6.90;94.80;;;;;;5071176;28;20476;-81
2024/02/15 11:15:12;;;;;;;21.75;10.07;;;-6.90;94.80;;;;;;5072485;28;20142;-81
2024/02/15 11:17:44;;;;;;;18.48;9.80;;;-6.80;94.60;;;;;;5072580;28;20021;-81
2024/02/15 11:20:11;;;;;;;27.67;17.02;;;-6.80;94.60;;;;;;5071158;28;20024;-80
2024/02/15 11:22:38;;;;;;;21.65;12.25;;;-6.80;94.20;;;;;;5072107;28;20126;-79
2024/02/15 11:25:08;;;;;;;14.93;10.55;;;-6.70;94.30;;;;;;5070812;28;20401;-81
2024/02/15 11:27:39;;;;;;;14.63;9.05;;;-6.80;94.40;;;;;;5073100;28;20052;-81
2024/02/15 11:30:09;;;;;;;12.82;7.03;;;-6.70;94.30;;;;;;5071708;28;20025;-82
2024/02/15 11:32:47;;;;;;;13.63;8.15;;;-6.70;94.60;;;;;;5072094;28;20028;-81
2024/02/15 11:35:13;;;;;;;19.05;10.90;;;-6.70;95.20;;;;;;5074726;28;20055;-81
2024/02/15 11:37:55;;;;;;;15.33;8.50;;;-6.70;95.00;;;;;;5075119;28;20036;-80
2024/02/15 11:40:41;;;;;;;13.77;9.05;;;-6.70;94.50;;;;;;5073487;28;20431;-81
2024/02/15 11:43:08;;;;;;;15.43;9.30;;;-6.70;94.60;;;;;;5073165;28;20051;-80
2024/02/15 11:45:40;;;;;;;16.35;9.23;;;-6.70;94.50;;;;;;5072974;28;20024;-81
2024/02/15 11:48:13;;;;;;;14.63;9.63;;;-6.70;94.00;;;;;;5075062;28;20013;-80
2024/02/15 11:50:39;;;;;;;17.55;10.05;;;-6.70;94.10;;;;;;5073166;28;20025;-81
2024/02/15 11:53:11;;;;;;;21.33;12.27;;;-6.80;94.20;;;;;;5077843;28;20016;-77
2024/02/15 11:55:38;;;;;;;13.85;8.07;;;-6.70;94.00;;;;;;5077939;28;20280;-79
2024/02/15 11:58:12;;;;;;;14.50;9.48;;;-6.80;94.00;;;;;;5072765;28;20013;-82
2024/02/15 12:20:10;;;;;;;24.23;12.15;;;-6.90;93.40;;;;;;5085690;28;20041;-80
2024/02/15 12:22:41;;;;;;;21.85;12.10;;;-6.90;93.50;;;;;;5071366;28;20025;-82
2024/02/15 12:25:16;;;;;;;20.67;10.13;;;-6.90;93.70;;;;;;5070474;28;20102;-82
2024/02/15 12:27:44;;;;;;;18.00;8.90;;;-6.90;93.60;;;;;;5071565;28;20029;-82
2024/02/15 12:30:25;;;;;;;24.63;8.90;;;-6.90;93.50;;;;;;5071454;28;20025;-79
2024/02/15 12:32:51;;;;;;;20.52;9.27;;;-6.90;94.90;;;;;;5070486;28;20033;-81
2024/02/15 12:35:23;;;;;;;23.07;9.97;;;-6.90;94.80;;;;;;5075001;28;20401;-80
2024/02/15 12:38:04;;;;;;;21.20;8.90;;;-6.90;94.30;;;;;;5074731;28;20360;-79
2024/02/15 12:40:37;;;;;;;14.60;7.95;;;-7.00;95.00;;;;;;5073751;28;20529;-81
2024/02/15 12:43:10;;;;;;;19.67;8.98;;;-7.00;95.10;;;;;;5075321;28;20078;-80
2024/02/15 12:45:41;;;;;;;18.20;9.25;;;-7.00;95.00;;;;;;5073805;28;20063;-79
2024/02/15 12:48:08;;;;;;;18.33;12.45;;;-7.00;94.90;;;;;;5076269;28;20021;-81
2024/02/15 12:50:36;;;;;;;20.52;9.45;;;-7.00;94.60;;;;;;5075760;28;20086;-80
2024/02/15 12:53:02;;;;;;;22.00;10.10;;;-7.00;94.60;;;;;;5057244;28;20044;-81
2024/02/15 12:55:34;;;;;;;16.75;9.35;;;-7.00;94.50;;;;;;5075057;28;20052;-80
2024/02/15 12:58:03;;;;;;;20.50;11.40;;;-7.00;94.50;;;;;;5074720;28;20036;-81
2024/02/15 13:00:35;;;;;;;18.48;9.65;;;-7.00;94.60;;;;;;5074590;28;20504;-80
2024/02/15 13:03:08;;;;;;;20.05;9.93;;;-7.00;94.40;;;;;;5067056;28;20328;-80
2024/02/15 13:05:36;;;;;;;22.88;9.82;;;-7.00;94.30;;;;;;5075176;28;20137;-80
2024/02/15 13:08:02;;;;;;;21.05;10.13;;;-7.00;94.30;;;;;;5073655;28;20113;-82
2024/02/15 13:10:31;;;;;;;22.00;9.95;;;-7.00;94.50;;;;;;5073698;28;20083;-79
2024/02/15 13:12:58;;;;;;;21.38;11.15;;;-7.00;94.50;;;;;;5074450;28;20037;-81
2024/02/15 13:15:32;;;;;;;15.00;8.50;;;-7.00;94.30;;;;;;5073898;28;20108;-81